createdAt,value
2018-03-20T00:12:27.357Z,-3.35
2018-03-20T00:13:27.334Z,-3.33
2018-03-20T00:14:27.053Z,-3.3
2018-03-20T00:15:27.296Z,-3.42
2018-03-20T00:16:27.290Z,-3.45
2018-03-20T00:17:27.265Z,-3.48
2018-03-20T00:18:27.235Z,-3.39
2018-03-20T00:19:26.717Z,-3.45
2018-03-20T00:20:27.202Z,-3.49
2018-03-20T00:21:27.180Z,-3.52
2018-03-20T00:22:27.177Z,-3.59
2018-03-20T00:23:27.147Z,-3.54
2018-03-20T00:24:26.870Z,-3.54
2018-03-20T00:25:26.856Z,-3.57
2018-03-20T01:28:25.964Z,-3.9
2018-03-20T01:29:25.938Z,-3.86
2018-03-20T01:30:25.920Z,-3.85
2018-03-20T02:10:25.182Z,-4.2
2018-03-20T02:11:25.165Z,-4.1
2018-03-20T02:12:25.140Z,-4.1
2018-03-20T02:13:25.123Z,-4.21
2018-03-20T02:14:24.845Z,-4.2
2018-03-20T02:15:25.084Z,-4.15
2018-03-20T02:16:25.066Z,-4.21
2018-03-20T02:17:25.050Z,-4.21
2018-03-20T02:18:25.031Z,-4.11
2018-03-20T02:19:25.013Z,-4.15
2018-03-20T02:20:25.002Z,-4.18
2018-03-20T02:21:24.975Z,-4.15
2018-03-20T02:22:24.963Z,-4.14
2018-03-20T02:23:24.935Z,-4.17
2018-03-20T02:24:24.912Z,-4.21
2018-03-20T02:25:24.899Z,-4.15
2018-03-20T02:26:24.879Z,-4.15
2018-03-20T02:27:24.866Z,-4.17
2018-03-20T02:28:24.841Z,-4.2
2018-03-20T02:29:24.826Z,-4.2
2018-03-20T02:30:24.549Z,-4.15
2018-03-20T02:31:24.791Z,-4.22
2018-03-20T02:32:24.778Z,-4.15
2018-03-20T02:33:24.750Z,-4.2
2018-03-20T02:34:24.731Z,-4.21
2018-03-20T02:35:24.717Z,-4.2
2018-03-20T02:36:24.701Z,-4.24
2018-03-20T02:49:24.449Z,-4.3
2018-03-20T04:23:22.686Z,-4.74
2018-03-20T04:24:22.663Z,-4.71
2018-03-20T04:25:22.645Z,-4.75
2018-03-20T04:26:22.630Z,-4.63
2018-03-20T04:27:22.631Z,-4.65
2018-03-20T04:28:22.602Z,-4.67
2018-03-20T04:29:22.314Z,-4.75
2018-03-20T04:30:22.560Z,-4.65
2018-03-20T04:31:22.535Z,-4.6
2018-03-20T04:32:22.513Z,-4.71
2018-03-20T04:33:22.494Z,-4.71
2018-03-20T04:34:22.470Z,-4.68
2018-03-20T04:35:22.458Z,-4.71
2018-03-20T04:36:22.443Z,-4.69
2018-03-20T04:37:22.160Z,-4.67
2018-03-20T04:38:22.139Z,-4.65
2018-03-20T04:39:22.377Z,-4.68
2018-03-20T04:40:22.358Z,-4.68
2018-03-20T04:41:22.346Z,-4.6
2018-03-20T04:42:22.071Z,-4.56
2018-03-20T04:43:22.298Z,-4.57
2018-03-20T04:44:22.288Z,-4.54
2018-03-20T04:45:22.261Z,-4.43
2018-03-20T04:46:22.243Z,-4.5
2018-03-20T04:47:22.233Z,-4.51
2018-03-20T04:48:22.215Z,-4.42
2018-03-20T04:49:21.929Z,-4.36
2018-03-20T04:50:22.170Z,-4.33
2018-03-20T04:51:21.897Z,-4.33
2018-03-20T04:52:22.131Z,-4.3
2018-03-20T04:53:22.119Z,-4.22
2018-03-20T04:54:22.089Z,-4.28
2018-03-20T04:55:21.817Z,-4.17
2018-03-20T04:56:22.057Z,-4.14
2018-03-20T04:57:22.062Z,-4.11
2018-03-20T04:58:22.018Z,-4.11
2018-03-20T04:59:21.826Z,-4.14
2018-03-20T05:00:21.997Z,-4.06
2018-03-20T05:01:21.967Z,-3.94
2018-03-20T05:02:21.686Z,-3.94
2018-03-20T05:03:21.929Z,-3.9
2018-03-20T05:04:21.906Z,-3.81
2018-03-20T05:05:21.886Z,-3.93
2018-03-20T05:06:21.869Z,-3.85
2018-03-20T05:07:21.845Z,-3.71
2018-03-20T05:08:21.835Z,-3.71
2018-03-20T05:09:21.816Z,-3.67
2018-03-20T05:10:21.800Z,-3.56
2018-03-20T05:11:21.772Z,-3.57
2018-03-20T05:12:21.759Z,-3.59
2018-03-20T05:13:21.487Z,-3.57
2018-03-20T05:14:21.725Z,-3.54
2018-03-20T05:15:21.703Z,-3.62
2018-03-20T05:16:21.680Z,-3.63
2018-03-20T05:17:21.404Z,-3.54
2018-03-20T05:18:21.640Z,-3.54
2018-03-20T05:19:21.627Z,-3.52
2018-03-20T05:20:21.602Z,-3.45
2018-03-20T05:21:21.595Z,-3.48
2018-03-20T05:22:21.628Z,-3.38
2018-03-20T05:23:21.550Z,-3.33
2018-03-20T05:24:21.533Z,-3.31
2018-03-20T05:25:21.528Z,-3.35
2018-03-20T05:26:21.498Z,-3.24
2018-03-20T05:27:21.223Z,-3.25
2018-03-20T05:28:21.460Z,-3.12
2018-03-20T05:29:21.444Z,-3.05
2018-03-20T05:30:21.428Z,-2.99
2018-03-20T05:31:21.405Z,-2.89
2018-03-20T05:32:21.391Z,-2.71
2018-03-20T05:33:21.365Z,-2.63
2018-03-20T05:34:21.351Z,-2.55
2018-03-20T05:35:21.338Z,-2.42
2018-03-20T05:36:21.314Z,-2.18
2018-03-20T05:37:21.299Z,-1.9
2018-03-20T05:38:20.778Z,-1.69
2018-03-20T05:39:21.258Z,-1.58
2018-03-20T05:40:21.000Z,-1.37
2018-03-20T05:41:21.229Z,-1.12
2018-03-20T05:42:20.959Z,-1.05
2018-03-20T05:43:20.939Z,-0.98
2018-03-20T05:44:21.173Z,-0.83
2018-03-20T05:45:20.906Z,-0.73
2018-03-20T05:46:21.140Z,-0.61
2018-03-20T05:47:21.124Z,-0.6
2018-03-20T05:48:21.120Z,-0.55
2018-03-20T05:49:21.095Z,-0.58
2018-03-20T05:50:21.080Z,-0.51
2018-03-20T05:51:21.061Z,-0.49
2018-03-20T05:52:21.043Z,-0.57
2018-03-20T05:53:21.037Z,-0.51
2018-03-20T05:54:21.013Z,-0.42
2018-03-20T05:55:21.030Z,-0.31
2018-03-20T05:56:20.985Z,-0.26
2018-03-20T05:57:20.967Z,-0.31
2018-03-20T05:58:20.961Z,-0.28
2018-03-20T05:59:20.934Z,-0.16
2018-03-20T06:00:20.924Z,-0.14
2018-03-20T06:01:20.649Z,-0.14
2018-03-20T06:02:20.894Z,-0.08
2018-03-20T06:03:20.875Z,-0.07
2018-03-20T06:04:20.860Z,0
2018-03-20T06:05:20.848Z,-0.16
2018-03-20T06:06:20.924Z,-0.04
2018-03-20T06:07:20.812Z,-0.04
2018-03-20T06:08:20.835Z,0.08
2018-03-20T06:09:20.783Z,0.13
2018-03-20T06:10:20.762Z,0.11
2018-03-20T06:11:20.755Z,0.11
2018-03-20T06:12:20.781Z,0.07
2018-03-20T06:13:20.721Z,0.1
2018-03-20T06:14:20.706Z,0.13
2018-03-20T06:15:20.696Z,0.17
2018-03-20T06:16:20.674Z,0.28
2018-03-20T06:17:20.404Z,0.33
2018-03-20T06:18:20.644Z,0.47
2018-03-20T06:19:20.630Z,0.41
2018-03-20T06:20:20.631Z,0.6
2018-03-20T06:21:20.606Z,0.68
2018-03-20T06:22:20.582Z,0.8
2018-03-20T06:23:20.564Z,0.78
2018-03-20T06:24:20.551Z,0.87
2018-03-20T06:25:20.536Z,0.83
2018-03-20T06:26:20.516Z,0.84
2018-03-20T06:27:20.504Z,0.86
2018-03-20T06:28:20.641Z,0.83
2018-03-20T06:29:20.481Z,0.86
2018-03-20T06:30:20.458Z,0.97
2018-03-20T06:31:20.448Z,0.88
2018-03-20T06:32:20.438Z,0.76
2018-03-20T06:33:20.410Z,0.83
2018-03-20T06:34:20.405Z,0.8
2018-03-20T06:35:20.389Z,0.86
2018-03-20T06:36:20.113Z,0.84
2018-03-20T06:37:20.349Z,1
2018-03-20T06:38:20.335Z,0.96
2018-03-20T06:39:20.069Z,0.98
2018-03-20T06:40:20.306Z,1.24
2018-03-20T06:41:20.303Z,1.32
2018-03-20T06:42:20.276Z,1.41
2018-03-20T06:43:20.270Z,1.44
2018-03-20T06:44:20.249Z,1.59
2018-03-20T06:45:19.976Z,1.65
2018-03-20T06:46:20.218Z,1.73
2018-03-20T06:47:20.202Z,1.79
2018-03-20T06:48:20.183Z,1.95
2018-03-20T06:49:20.178Z,2.09
2018-03-20T06:50:19.901Z,2.16
2018-03-20T06:51:20.146Z,2.25
2018-03-20T06:52:19.870Z,2.45
2018-03-20T06:53:19.858Z,2.41
2018-03-20T06:54:20.143Z,2.6
2018-03-20T06:55:20.090Z,2.64
2018-03-20T06:56:19.830Z,2.77
2018-03-20T06:57:19.802Z,2.93
2018-03-20T06:58:19.541Z,3.08
2018-03-20T06:59:19.774Z,3.28
2018-03-20T07:00:20.015Z,3.21
2018-03-20T07:01:20.010Z,3.5
2018-03-20T07:02:19.728Z,3.69
2018-03-20T07:03:19.719Z,3.9
2018-03-20T07:04:19.703Z,3.97
2018-03-20T07:05:19.692Z,4.2
2018-03-20T07:06:20.072Z,4.34
2018-03-20T07:07:19.670Z,4.54
2018-03-20T07:08:19.656Z,4.65
2018-03-20T07:09:19.899Z,4.6
2018-03-20T07:10:19.888Z,4.8
2018-03-20T07:11:19.619Z,4.84
2018-03-20T07:12:19.868Z,4.99
2018-03-20T07:13:19.854Z,5.06
2018-03-20T07:14:19.836Z,5.25
2018-03-20T07:15:19.821Z,5.31
2018-03-20T07:16:19.828Z,5.43
2018-03-20T07:17:19.798Z,5.46
2018-03-20T07:18:19.788Z,5.45
2018-03-20T07:20:19.768Z,5.67
2018-03-20T07:21:19.784Z,5.72
2018-03-20T07:22:19.489Z,5.83
2018-03-20T07:23:19.480Z,5.85
2018-03-20T07:24:19.715Z,5.94
2018-03-20T07:25:19.457Z,6.06
2018-03-20T07:26:19.699Z,6.15
2018-03-20T07:27:19.697Z,6.36
2018-03-20T07:28:19.794Z,6.48
2018-03-20T07:29:19.675Z,6.67
2018-03-20T07:30:19.402Z,6.69
2018-03-20T07:31:19.657Z,6.88
2018-03-20T07:32:19.650Z,6.95
2018-03-20T07:33:19.627Z,6.99
2018-03-20T07:34:19.634Z,7.06
2018-03-20T07:35:19.610Z,7.21
2018-03-20T07:36:19.600Z,7.23
2018-03-20T07:37:19.594Z,7.25
2018-03-20T07:38:19.581Z,7.39
2018-03-20T07:39:19.568Z,7.39
2018-03-20T07:40:19.581Z,7.53
2018-03-20T07:41:19.554Z,7.52
2018-03-20T07:42:19.286Z,7.46
2018-03-20T07:43:19.279Z,7.48
2018-03-20T07:44:19.270Z,7.46
2018-03-20T07:45:19.518Z,7.53
2018-03-20T07:46:18.992Z,7.6
2018-03-20T07:47:19.506Z,7.52
2018-03-20T07:48:19.493Z,7.69
2018-03-20T07:49:19.502Z,7.72
2018-03-20T07:50:19.470Z,7.74
2018-03-20T07:51:19.467Z,7.83
2018-03-20T07:52:19.454Z,7.83
2018-03-20T07:53:19.472Z,7.83
2018-03-20T07:54:19.451Z,7.69
2018-03-20T07:55:19.429Z,7.55
2018-03-20T07:56:19.452Z,7.55
2018-03-20T07:57:19.473Z,7.57
2018-03-20T07:58:19.629Z,7.46
2018-03-20T07:59:19.136Z,7.45
2018-03-20T08:00:19.149Z,7.57
2018-03-20T08:01:19.388Z,7.48
2018-03-20T08:02:19.372Z,7.57
2018-03-20T08:03:19.353Z,7.53
2018-03-20T08:04:19.341Z,7.6
2018-03-20T08:05:19.347Z,7.58
2018-03-20T08:06:19.338Z,7.68
2018-03-20T08:07:19.066Z,7.74
2018-03-20T08:08:19.321Z,7.79
2018-03-20T08:09:19.301Z,7.68
2018-03-20T08:10:19.316Z,7.83
2018-03-20T08:11:19.349Z,7.83
2018-03-20T08:12:19.293Z,7.79
2018-03-20T08:13:19.301Z,7.77
2018-03-20T08:14:19.000Z,7.79
2018-03-20T08:15:19.266Z,7.9
2018-03-20T08:16:18.983Z,7.89
2018-03-20T08:17:19.237Z,7.95
2018-03-20T08:18:18.965Z,7.93
2018-03-20T08:19:19.210Z,7.85
2018-03-20T08:20:19.211Z,7.92
2018-03-20T08:21:19.191Z,7.87
2018-03-20T08:22:19.185Z,7.97
2018-03-20T08:23:19.184Z,7.86
2018-03-20T08:24:19.166Z,7.82
2018-03-20T08:25:19.150Z,7.86
2018-03-20T08:26:19.163Z,7.89
2018-03-20T08:27:18.880Z,7.74
2018-03-20T08:28:19.124Z,7.68
2018-03-20T08:29:19.228Z,7.64
2018-03-20T08:30:19.118Z,7.74
2018-03-20T08:31:18.840Z,7.64
2018-03-20T08:32:18.858Z,7.58
2018-03-20T08:33:18.837Z,7.67
2018-03-20T08:34:19.070Z,7.63
2018-03-20T08:35:18.832Z,7.64
2018-03-20T08:36:18.538Z,7.82
2018-03-20T08:37:19.037Z,7.74
2018-03-20T08:38:19.091Z,7.75
2018-03-20T08:39:19.025Z,7.79
2018-03-20T08:40:19.018Z,7.86
2018-03-20T08:41:18.756Z,7.92
2018-03-20T08:42:19.011Z,7.79
2018-03-20T08:43:19.262Z,7.98
2018-03-20T08:44:18.997Z,7.93
2018-03-20T08:45:18.981Z,7.97
2018-03-20T08:46:18.699Z,8.04
2018-03-20T08:47:18.944Z,8.02
2018-03-20T08:48:18.943Z,7.98
2018-03-20T08:49:18.933Z,7.95
2018-03-20T08:50:18.710Z,8
2018-03-20T08:51:18.952Z,7.98
2018-03-20T08:52:18.918Z,7.98
2018-03-20T08:53:18.653Z,7.87
2018-03-20T08:54:18.638Z,7.72
2018-03-20T08:55:18.877Z,7.74
2018-03-20T08:56:18.623Z,7.67
2018-03-20T08:57:18.854Z,7.68
2018-03-20T08:58:18.887Z,7.69
2018-03-20T08:59:18.904Z,7.68
2018-03-20T09:00:18.841Z,7.68
2018-03-20T09:01:18.860Z,7.75
2018-03-20T09:02:18.867Z,7.75
2018-03-20T09:03:18.793Z,7.69
2018-03-20T09:04:18.798Z,7.83
2018-03-20T09:05:18.789Z,7.9
2018-03-20T09:06:18.783Z,7.93
2018-03-20T09:07:18.809Z,8.01
2018-03-20T09:08:18.751Z,8.18
2018-03-20T09:09:18.742Z,8.2
2018-03-20T09:10:18.487Z,8.36
2018-03-20T09:11:18.711Z,8.3
2018-03-20T09:12:18.724Z,8.33
2018-03-20T09:13:18.703Z,8.34
2018-03-20T09:14:18.729Z,8.4
2018-03-20T09:15:18.432Z,8.43
2018-03-20T09:16:18.414Z,8.48
2018-03-20T09:17:18.674Z,8.4
2018-03-20T09:18:18.658Z,8.3
2018-03-20T09:19:18.388Z,8.33
2018-03-20T09:20:18.645Z,8.34
2018-03-20T09:21:18.366Z,8.34
2018-03-20T09:22:18.614Z,8.34
2018-03-20T09:23:18.603Z,8.33
2018-03-20T09:24:18.365Z,8.44
2018-03-20T09:25:18.612Z,8.5
2018-03-20T09:26:18.332Z,8.68
2018-03-20T09:27:18.583Z,8.71
2018-03-20T09:28:18.578Z,8.71
2018-03-20T09:29:18.056Z,8.66
2018-03-20T09:30:18.537Z,8.74
2018-03-20T09:31:18.283Z,8.61
2018-03-20T09:32:18.600Z,8.71
2018-03-20T09:33:18.257Z,8.55
2018-03-20T09:34:18.573Z,8.59
2018-03-20T09:35:18.503Z,8.59
2018-03-20T09:36:18.489Z,8.65
2018-03-20T09:37:18.242Z,8.61
2018-03-20T09:38:18.737Z,8.55
2018-03-20T09:39:18.219Z,8.52
2018-03-20T09:40:18.824Z,8.41
2018-03-20T09:41:18.454Z,8.4
2018-03-20T09:42:18.476Z,8.45
2018-03-20T09:43:18.457Z,8.43
2018-03-20T09:44:18.428Z,8.47
2018-03-20T09:45:18.662Z,8.52
2018-03-20T09:46:18.145Z,8.56
2018-03-20T09:47:18.139Z,8.55
2018-03-20T09:48:18.140Z,8.62
2018-03-20T09:49:18.122Z,8.59
2018-03-20T09:50:18.378Z,8.7
2018-03-20T09:51:18.384Z,8.71
2018-03-20T09:52:18.099Z,8.71
2018-03-20T09:53:18.094Z,8.73
2018-03-20T09:54:18.091Z,8.96
2018-03-20T09:55:18.120Z,8.95
2018-03-20T09:56:18.084Z,9.01
2018-03-20T09:57:18.074Z,9.18
2018-03-20T09:58:18.088Z,9.13
2018-03-20T09:59:18.040Z,9.15
2018-03-20T10:00:18.118Z,9.17
2018-03-20T10:01:18.021Z,9.24
2018-03-20T10:02:18.299Z,9.23
2018-03-20T10:03:18.278Z,9.18
2018-03-20T10:04:18.025Z,9.18
2018-03-20T10:05:17.992Z,9.15
2018-03-20T10:06:17.977Z,9.2
2018-03-20T10:07:17.986Z,9.17
2018-03-20T10:08:17.960Z,8.99
2018-03-20T10:09:17.971Z,8.8
2018-03-20T10:10:17.947Z,8.73
2018-03-20T10:11:18.224Z,8.59
2018-03-20T10:12:18.185Z,8.48
2018-03-20T10:13:17.958Z,8.36
2018-03-20T10:14:17.915Z,8.3
2018-03-20T10:15:17.912Z,8.2
2018-03-20T10:16:17.916Z,8
2018-03-20T10:17:18.152Z,7.85
2018-03-20T10:18:18.160Z,7.82
2018-03-20T10:19:18.127Z,7.58
2018-03-20T10:20:18.516Z,7.57
2018-03-20T10:21:18.112Z,7.39
2018-03-20T10:22:18.103Z,7.3
2018-03-20T10:23:18.103Z,7.21
2018-03-20T10:24:18.082Z,7.17
2018-03-20T10:25:18.101Z,7.2
2018-03-20T10:26:17.610Z,7.27
2018-03-20T10:27:17.813Z,7.31
2018-03-20T10:28:18.059Z,7.31
2018-03-20T10:29:18.044Z,7.34
2018-03-20T10:30:17.512Z,7.4
2018-03-20T10:31:18.011Z,7.42
2018-03-20T10:32:18.033Z,7.58
2018-03-20T10:33:18.052Z,7.53
2018-03-20T10:34:17.991Z,7.6
2018-03-20T10:35:17.725Z,7.63
2018-03-20T10:36:17.753Z,7.74
2018-03-20T10:37:17.970Z,7.67
2018-03-20T10:38:17.744Z,7.68
2018-03-20T10:39:17.967Z,7.79
2018-03-20T10:40:17.932Z,8
2018-03-20T10:41:17.932Z,8.16
2018-03-20T10:42:17.925Z,8.29
2018-03-20T10:43:17.995Z,8.5
2018-03-20T10:44:17.898Z,8.7
2018-03-20T10:45:17.884Z,8.79
2018-03-20T10:46:17.884Z,8.98
2018-03-20T10:47:17.893Z,9.04
2018-03-20T10:48:17.879Z,9.23
2018-03-20T10:49:17.881Z,9.38
2018-03-20T10:50:17.849Z,9.43
2018-03-20T10:51:17.599Z,9.53
2018-03-20T10:52:18.281Z,9.64
2018-03-20T10:53:17.860Z,9.66
2018-03-20T10:54:17.812Z,9.71
2018-03-20T10:55:17.810Z,9.78
2018-03-20T10:56:17.801Z,9.71
2018-03-20T10:57:17.812Z,9.65
2018-03-20T10:58:17.790Z,9.46
2018-03-20T10:59:17.775Z,9.31
2018-03-20T11:00:17.790Z,9.18
2018-03-20T11:01:17.785Z,9.01
2018-03-20T11:02:17.518Z,8.74
2018-03-20T11:03:17.488Z,8.47
2018-03-20T11:04:17.740Z,8.22
2018-03-20T11:05:17.739Z,8.08
2018-03-20T11:06:17.724Z,7.97
2018-03-20T11:07:17.748Z,7.85
2018-03-20T11:08:17.718Z,7.89
2018-03-20T11:09:17.487Z,7.83
2018-03-20T11:10:17.716Z,7.92
2018-03-20T11:11:17.688Z,7.97
2018-03-20T11:12:17.691Z,7.93
2018-03-20T11:13:17.734Z,7.75
2018-03-20T11:14:17.665Z,7.57
2018-03-20T11:15:17.393Z,7.27
2018-03-20T11:16:17.444Z,6.95
2018-03-20T11:17:17.634Z,6.85
2018-03-20T11:18:17.623Z,6.88
2018-03-20T11:19:17.643Z,6.81
2018-03-20T11:20:17.608Z,6.88
2018-03-20T11:21:17.360Z,6.84
2018-03-20T11:22:17.588Z,6.7
2018-03-20T11:23:17.572Z,6.59
2018-03-20T11:24:17.564Z,6.49
2018-03-20T11:25:17.584Z,6.52
2018-03-20T11:26:17.313Z,6.51
2018-03-20T11:27:17.542Z,6.48
2018-03-20T11:28:17.537Z,6.51
2018-03-20T11:29:17.548Z,6.51
2018-03-20T11:30:17.533Z,6.54
2018-03-20T11:31:17.538Z,6.49
2018-03-20T11:32:17.500Z,6.52
2018-03-20T11:33:17.231Z,6.34
2018-03-20T11:34:17.218Z,6.14
2018-03-20T11:35:17.503Z,6.04
2018-03-20T11:36:17.459Z,5.86
2018-03-20T11:37:17.192Z,5.71
2018-03-20T11:38:17.429Z,5.61
2018-03-20T11:39:17.434Z,5.36
2018-03-20T11:40:17.408Z,5.22
2018-03-20T11:41:17.399Z,5.15
2018-03-20T11:42:17.392Z,4.92
2018-03-20T11:43:17.379Z,4.82
2018-03-20T11:44:17.376Z,4.84
2018-03-20T11:45:17.410Z,4.5
2018-03-20T11:46:17.087Z,4.41
2018-03-20T11:47:17.383Z,4.27
2018-03-20T11:48:17.322Z,4.29
2018-03-20T11:49:17.066Z,4.27
2018-03-20T11:50:17.316Z,4.34
2018-03-20T11:51:17.032Z,4.3
2018-03-20T11:52:17.280Z,4.27
2018-03-20T11:53:17.025Z,4.12
2018-03-20T11:54:17.272Z,3.96
2018-03-20T11:55:17.244Z,3.75
2018-03-20T11:56:17.243Z,3.5
2018-03-20T11:57:17.224Z,3.4
2018-03-20T11:58:17.203Z,3.31
2018-03-20T11:59:17.196Z,3.26
2018-03-20T12:00:17.187Z,3.26
2018-03-20T12:01:17.168Z,3.26
2018-03-20T12:02:17.285Z,3.2
2018-03-20T12:03:17.144Z,3.21
2018-03-20T12:04:17.132Z,3.1
2018-03-20T12:05:17.141Z,3.14
2018-03-20T12:06:17.118Z,2.96
2018-03-20T12:07:16.850Z,3
2018-03-20T12:08:17.085Z,2.85
2018-03-20T12:09:17.075Z,2.87
2018-03-20T12:10:17.061Z,2.95
2018-03-20T12:11:17.046Z,3
2018-03-20T12:12:16.793Z,2.97
2018-03-20T12:13:17.024Z,2.95
2018-03-20T12:14:16.759Z,2.96
2018-03-20T12:15:17.001Z,2.93
2018-03-20T12:16:16.733Z,2.97
2018-03-20T12:17:16.734Z,2.87
2018-03-20T12:18:16.956Z,2.89
2018-03-20T12:19:16.968Z,2.85
2018-03-20T12:20:16.937Z,2.85
2018-03-20T12:21:16.930Z,2.85
2018-03-20T12:22:16.907Z,2.9
2018-03-20T12:23:16.633Z,2.79
2018-03-20T12:24:16.875Z,2.77
2018-03-20T12:25:17.023Z,2.89
2018-03-20T12:26:16.853Z,3.05
2018-03-20T12:27:16.855Z,3.05
2018-03-20T12:28:16.827Z,3.08
2018-03-20T12:29:16.818Z,3.13
2018-03-20T12:30:16.800Z,2.97
2018-03-20T12:31:16.789Z,2.85
2018-03-20T12:32:16.778Z,2.79
2018-03-20T12:33:16.275Z,2.72
2018-03-20T12:34:16.758Z,2.69
2018-03-20T12:35:16.743Z,2.72
2018-03-20T12:36:16.478Z,2.81
2018-03-20T12:37:16.717Z,2.87
2018-03-20T12:38:16.441Z,2.87
2018-03-20T12:39:17.116Z,2.85
2018-03-20T12:40:16.414Z,2.66
2018-03-20T12:41:16.664Z,2.66
2018-03-20T12:42:16.657Z,2.71
2018-03-20T12:43:16.661Z,2.59
2018-03-20T12:44:16.638Z,2.61
2018-03-20T12:45:16.608Z,2.71
2018-03-20T12:46:16.644Z,2.67
2018-03-20T12:47:16.613Z,2.71
2018-03-20T12:48:16.590Z,2.79
2018-03-20T12:49:16.332Z,2.82
2018-03-20T12:50:16.568Z,2.87
2018-03-20T12:51:16.538Z,2.84
2018-03-20T12:52:16.528Z,2.95
2018-03-20T12:53:16.249Z,2.95
2018-03-20T12:54:16.499Z,2.9
2018-03-20T12:55:16.231Z,2.97
2018-03-20T12:56:16.894Z,3.14
2018-03-20T12:57:16.505Z,3.29
2018-03-20T12:58:16.462Z,3.31
2018-03-20T12:59:15.962Z,3.39
2018-03-20T13:00:16.411Z,3.26
2018-03-20T13:01:16.401Z,3.26
2018-03-20T13:02:16.388Z,3.2
2018-03-20T13:03:16.119Z,3.18
2018-03-20T13:04:16.365Z,3.15
2018-03-20T13:05:16.356Z,3.18
2018-03-20T13:06:16.336Z,3.28
2018-03-20T13:07:16.345Z,3.42
2018-03-20T13:08:16.337Z,3.26
2018-03-20T13:09:16.306Z,3.24
2018-03-20T13:10:16.290Z,3.23
2018-03-20T13:11:16.011Z,3.21
2018-03-20T13:12:16.276Z,3.39
2018-03-20T13:13:16.343Z,3.39
2018-03-20T13:14:15.981Z,3.33
2018-03-20T13:15:16.216Z,3.33
2018-03-20T13:16:16.216Z,3.43
2018-03-20T13:17:16.191Z,3.39
2018-03-20T13:18:15.957Z,3.5
2018-03-20T13:19:16.286Z,3.55
2018-03-20T13:20:15.903Z,3.54
2018-03-20T13:21:16.138Z,3.62
2018-03-20T13:22:16.133Z,3.72
2018-03-20T13:23:16.415Z,3.84
2018-03-20T13:24:16.112Z,3.93
2018-03-20T13:25:16.114Z,4.09
2018-03-20T13:26:16.074Z,4.18
2018-03-20T13:27:16.096Z,4.29
2018-03-20T13:28:16.114Z,4.48
2018-03-20T13:29:16.056Z,4.59
2018-03-20T13:30:16.067Z,4.55
2018-03-20T13:31:16.029Z,4.51
2018-03-20T13:32:16.043Z,4.66
2018-03-20T13:33:16.000Z,4.67
2018-03-20T13:34:16.003Z,4.67
2018-03-20T13:35:15.979Z,4.82
2018-03-20T13:36:15.982Z,4.86
2018-03-20T13:37:15.988Z,4.96
2018-03-20T13:38:15.730Z,4.97
2018-03-20T13:39:15.965Z,4.96
2018-03-20T13:40:15.693Z,4.97
2018-03-20T13:41:15.664Z,4.99
2018-03-20T13:42:15.893Z,5.07
2018-03-20T13:43:15.886Z,5.28
2018-03-20T13:44:15.869Z,5.39
2018-03-20T13:45:15.861Z,5.36
2018-03-20T13:46:15.845Z,5.46
2018-03-20T13:47:15.889Z,5.53
2018-03-20T13:48:15.858Z,5.36
2018-03-20T13:49:15.892Z,5.22
2018-03-20T13:50:15.814Z,5.15
2018-03-20T13:51:15.844Z,5.09
2018-03-20T13:52:15.567Z,5.15
2018-03-20T13:53:15.823Z,5.22
2018-03-20T13:54:15.264Z,5.28
2018-03-20T13:55:15.795Z,5.35
2018-03-20T13:56:15.760Z,5.35
2018-03-20T13:57:15.532Z,5.31
2018-03-20T13:58:15.761Z,5.36
2018-03-20T13:59:15.476Z,5.43
2018-03-20T14:00:15.438Z,5.4
2018-03-20T14:01:16.183Z,5.4
2018-03-20T14:02:15.705Z,5.56
2018-03-20T14:03:15.728Z,5.45
2018-03-20T14:04:15.465Z,5.46
2018-03-20T14:05:15.704Z,5.6
2018-03-20T14:06:15.497Z,5.46
2018-03-20T14:07:15.641Z,5.43
2018-03-20T14:08:15.656Z,5.36
2018-03-20T14:09:15.798Z,5.24
2018-03-20T14:10:15.620Z,5.22
2018-03-20T14:11:15.598Z,5.13
2018-03-20T14:12:15.601Z,5.13
2018-03-20T14:13:15.570Z,5.17
2018-03-20T14:14:15.580Z,5.09
2018-03-20T14:15:15.327Z,5.03
2018-03-20T14:16:15.547Z,4.88
2018-03-20T14:17:15.528Z,4.84
2018-03-20T14:18:15.555Z,4.97
2018-03-20T14:19:15.492Z,4.88
2018-03-20T14:20:15.517Z,5
2018-03-20T14:21:15.505Z,4.94
2018-03-20T14:22:15.896Z,4.99
2018-03-20T14:23:15.504Z,4.97
2018-03-20T14:24:15.440Z,4.8
2018-03-20T14:25:15.481Z,4.67
2018-03-20T14:26:15.438Z,4.72
2018-03-20T14:27:15.410Z,4.66
2018-03-20T14:28:15.418Z,4.75
2018-03-20T14:29:15.410Z,4.69
2018-03-20T14:30:15.380Z,4.69
2018-03-20T14:31:15.425Z,4.82
2018-03-20T14:32:15.346Z,4.62
2018-03-20T14:33:15.329Z,4.65
2018-03-20T14:34:15.060Z,4.62
2018-03-20T14:35:15.317Z,4.58
2018-03-20T14:36:15.036Z,4.52
2018-03-20T14:37:15.037Z,4.5
2018-03-20T14:38:15.043Z,4.4
2018-03-20T14:39:15.261Z,4.45
2018-03-20T14:40:15.307Z,4.42
2018-03-20T14:41:15.267Z,4.5
2018-03-20T14:42:14.979Z,4.41
2018-03-20T14:43:14.991Z,4.41
2018-03-20T14:44:15.236Z,4.34
2018-03-20T14:45:14.941Z,4.33
2018-03-20T14:46:15.218Z,4.48
2018-03-20T14:47:14.932Z,4.52
2018-03-20T14:48:15.163Z,4.48
2018-03-20T14:49:14.892Z,4.42
2018-03-20T14:50:15.156Z,4.36
2018-03-20T14:51:15.134Z,4.29
2018-03-20T14:52:14.858Z,4.27
2018-03-20T14:53:15.162Z,4.23
2018-03-20T14:54:14.827Z,4.24
2018-03-20T14:55:15.082Z,4.22
2018-03-20T14:56:15.355Z,4.26
2018-03-20T14:57:14.780Z,4.24
2018-03-20T14:58:15.074Z,4.33
2018-03-20T14:59:14.771Z,4.41
2018-03-20T15:00:14.757Z,4.4
2018-03-20T15:01:14.993Z,4.36
2018-03-20T15:02:14.753Z,4.41
2018-03-20T15:03:15.003Z,4.41
2018-03-20T15:04:14.978Z,4.41
2018-03-20T15:05:14.698Z,4.41
2018-03-20T15:06:14.932Z,4.34
2018-03-20T15:07:14.976Z,4.4
2018-03-20T15:08:14.974Z,4.41
2018-03-20T15:09:14.896Z,4.33
2018-03-20T15:10:14.894Z,4.26
2018-03-20T15:11:14.873Z,4.27
2018-03-20T15:12:14.590Z,4.23
2018-03-20T15:13:14.868Z,4.18
2018-03-20T15:14:14.830Z,4.16
2018-03-20T15:15:14.838Z,4.22
2018-03-20T15:16:14.876Z,4.24
2018-03-20T15:17:14.802Z,4.24
2018-03-20T15:18:14.807Z,4.29
2018-03-20T15:19:14.501Z,4.33
2018-03-20T15:20:14.767Z,4.33
2018-03-20T15:21:14.746Z,4.26
2018-03-20T15:22:14.222Z,4.16
2018-03-20T15:23:14.464Z,4.16
2018-03-20T15:24:14.192Z,4.09
2018-03-20T15:25:14.705Z,4.06
2018-03-20T15:26:14.690Z,4.05
2018-03-20T15:27:14.932Z,4.11
2018-03-20T15:28:14.410Z,4.12
2018-03-20T15:29:14.533Z,4.12
2018-03-20T15:30:14.629Z,4.12
2018-03-20T15:31:14.377Z,4.06
2018-03-20T15:32:14.620Z,4.11
2018-03-20T15:33:14.361Z,4.04
2018-03-20T15:34:14.584Z,4.11
2018-03-20T15:35:14.561Z,4.05
2018-03-20T15:36:14.603Z,4.15
2018-03-20T15:37:14.538Z,4.15
2018-03-20T15:38:14.547Z,4.22
2018-03-20T15:39:14.516Z,4.18
2018-03-20T15:40:14.498Z,4.24
2018-03-20T15:41:14.235Z,4.26
2018-03-20T15:42:14.473Z,4.24
2018-03-20T15:43:14.220Z,4.33
2018-03-20T15:44:14.224Z,4.32
2018-03-20T15:45:14.456Z,4.4
2018-03-20T15:46:14.439Z,4.37
2018-03-20T15:47:14.413Z,4.44
2018-03-20T15:48:14.399Z,4.48
2018-03-20T15:49:14.409Z,4.41
2018-03-20T15:50:14.125Z,4.41
2018-03-20T15:51:14.361Z,4.47
2018-03-20T15:52:14.093Z,4.34
2018-03-20T15:53:14.329Z,4.48
2018-03-20T15:54:14.064Z,4.51
2018-03-20T15:55:14.053Z,4.48
2018-03-20T15:56:14.041Z,4.52
2018-03-20T15:57:14.289Z,4.51
2018-03-20T15:58:14.568Z,4.37
2018-03-20T15:59:14.000Z,4.37
2018-03-20T16:00:14.250Z,4.41
2018-03-20T16:01:14.237Z,4.27
2018-03-20T16:02:13.969Z,4.22
2018-03-20T16:03:13.961Z,4.2
2018-03-20T16:04:13.681Z,4.16
2018-03-20T16:05:14.186Z,4.05
2018-03-20T16:06:14.169Z,3.93
2018-03-20T16:07:14.166Z,3.72
2018-03-20T16:08:13.636Z,3.72
2018-03-20T16:09:13.682Z,3.52
2018-03-20T16:10:14.123Z,3.5
2018-03-20T16:11:13.608Z,3.45
2018-03-20T16:12:14.102Z,3.32
2018-03-20T16:13:13.825Z,3.23
2018-03-20T16:14:14.067Z,3.24
2018-03-20T16:15:14.053Z,3.11
2018-03-20T16:16:14.040Z,2.96
2018-03-20T16:17:14.022Z,2.93
2018-03-20T16:18:14.025Z,2.84
2018-03-20T16:19:13.769Z,2.9
2018-03-20T16:20:13.991Z,2.92
2018-03-20T16:21:13.995Z,2.84
2018-03-20T16:22:13.968Z,2.87
2018-03-20T16:23:13.949Z,2.82
2018-03-20T16:24:13.680Z,2.99
2018-03-20T16:25:13.936Z,2.93
2018-03-20T16:26:13.910Z,2.89
2018-03-20T16:27:13.897Z,2.95
2018-03-20T16:28:13.890Z,2.93
2018-03-20T16:29:13.861Z,2.96
2018-03-20T16:30:13.873Z,2.81
2018-03-20T16:31:13.596Z,2.89
2018-03-20T16:32:13.820Z,2.85
2018-03-20T16:33:13.828Z,2.82
2018-03-20T16:34:13.879Z,2.81
2018-03-20T16:35:13.791Z,2.81
2018-03-20T16:36:13.269Z,2.81
2018-03-20T16:37:13.761Z,2.84
2018-03-20T16:38:13.494Z,2.84
2018-03-20T16:39:13.471Z,2.79
2018-03-20T16:40:13.712Z,2.75
2018-03-20T16:41:13.464Z,2.72
2018-03-20T16:42:13.439Z,2.71
2018-03-20T16:43:13.681Z,2.69
2018-03-20T16:44:13.430Z,2.72
2018-03-20T16:45:13.664Z,2.57
2018-03-20T16:46:13.642Z,2.6
2018-03-20T16:47:13.633Z,2.57
2018-03-20T16:48:13.616Z,2.64
2018-03-20T16:49:13.598Z,2.57
2018-03-20T16:50:13.319Z,2.56
2018-03-20T16:51:13.586Z,2.54
2018-03-20T16:52:13.298Z,2.54
2018-03-20T16:53:13.538Z,2.53
2018-03-20T16:54:13.542Z,2.49
2018-03-20T16:55:13.505Z,2.45